sensor_id;sensor_type;location;lat;lon;timestamp;P1;durP1;ratioP1;P2;durP2;ratioP2
47866;SDS011;33628;50.806;11.586;2022-12-18T00:00:07;38.75;;;12.73;;
47866;SDS011;33628;50.806;11.586;2022-12-18T00:02:39;25.15;;;12.40;;
47866;SDS011;33628;50.806;11.586;2022-12-18T00:05:06;27.02;;;12.73;;
47866;SDS011;33628;50.806;11.586;2022-12-18T00:07:33;47.70;;;15.13;;
47866;SDS011;33628;50.806;11.586;2022-12-18T00:10:00;33.42;;;13.85;;
47866;SDS011;33628;50.806;11.586;2022-12-18T00:12:26;39.10;;;14.98;;
47866;SDS011;33628;50.806;11.586;2022-12-18T00:14:53;38.40;;;16.33;;
47866;SDS011;33628;50.806;11.586;2022-12-18T00:17:21;35.40;;;14.23;;
47866;SDS011;33628;50.806;11.586;2022-12-18T00:19:48;44.28;;;15.43;;
47866;SDS011;33628;50.806;11.586;2022-12-18T00:22:14;39.30;;;14.90;;
47866;SDS011;33628;50.806;11.586;2022-12-18T00:24:41;40.00;;;15.50;;
47866;SDS011;33628;50.806;11.586;2022-12-18T00:27:08;36.33;;;14.65;;
47866;SDS011;33628;50.806;11.586;2022-12-18T00:29:34;38.63;;;14.90;;
47866;SDS011;33628;50.806;11.586;2022-12-18T00:32:01;33.08;;;14.45;;
47866;SDS011;33628;50.806;11.586;2022-12-18T00:34:29;35.13;;;15.70;;
47866;SDS011;33628;50.806;11.586;2022-12-18T00:36:56;32.55;;;11.40;;
47866;SDS011;33628;50.806;11.586;2022-12-18T00:39:22;26.13;;;11.43;;
47866;SDS011;33628;50.806;11.586;2022-12-18T00:41:49;33.13;;;13.45;;
47866;SDS011;33628;50.806;11.586;2022-12-18T00:44:34;27.23;;;11.02;;
47866;SDS011;33628;50.806;11.586;2022-12-18T00:47:01;19.90;;;9.77;;
47866;SDS011;33628;50.806;11.586;2022-12-18T00:49:29;22.92;;;10.70;;
47866;SDS011;33628;50.806;11.586;2022-12-18T00:51:56;21.05;;;9.73;;
47866;SDS011;33628;50.806;11.586;2022-12-18T00:54:23;31.88;;;10.10;;
47866;SDS011;33628;50.806;11.586;2022-12-18T00:56:50;26.77;;;9.70;;
47866;SDS011;33628;50.806;11.586;2022-12-18T00:59:18;26.10;;;10.73;;
47866;SDS011;33628;50.806;11.586;2022-12-18T01:01:46;24.35;;;9.98;;
47866;SDS011;33628;50.806;11.586;2022-12-18T01:04:15;15.18;;;8.63;;
47866;SDS011;33628;50.806;11.586;2022-12-18T01:06:47;23.45;;;10.45;;
47866;SDS011;33628;50.806;11.586;2022-12-18T01:09:13;25.05;;;12.32;;
47866;SDS011;33628;50.806;11.586;2022-12-18T01:11:40;22.02;;;11.73;;
47866;SDS011;33628;50.806;11.586;2022-12-18T01:14:07;21.17;;;11.32;;
47866;SDS011;33628;50.806;11.586;2022-12-18T01:16:37;35.90;;;13.65;;
47866;SDS011;33628;50.806;11.586;2022-12-18T01:19:04;30.05;;;12.98;;
47866;SDS011;33628;50.806;11.586;2022-12-18T01:21:31;23.38;;;12.60;;
47866;SDS011;33628;50.806;11.586;2022-12-18T01:24:00;26.48;;;11.52;;
47866;SDS011;33628;50.806;11.586;2022-12-18T01:26:27;31.75;;;14.52;;
47866;SDS011;33628;50.806;11.586;2022-12-18T01:28:57;36.78;;;14.38;;
47866;SDS011;33628;50.806;11.586;2022-12-18T01:31:28;34.88;;;15.48;;
47866;SDS011;33628;50.806;11.586;2022-12-18T01:33:55;22.55;;;12.00;;
47866;SDS011;33628;50.806;11.586;2022-12-18T01:36:24;26.88;;;11.55;;
47866;SDS011;33628;50.806;11.586;2022-12-18T01:38:52;23.08;;;11.15;;
47866;SDS011;33628;50.806;11.586;2022-12-18T01:41:21;21.40;;;11.48;;
47866;SDS011;33628;50.806;11.586;2022-12-18T01:43:51;30.38;;;12.82;;
47866;SDS011;33628;50.806;11.586;2022-12-18T01:46:19;22.88;;;11.45;;
47866;SDS011;33628;50.806;11.586;2022-12-18T01:48:51;29.00;;;10.98;;
47866;SDS011;33628;50.806;11.586;2022-12-18T01:51:20;24.70;;;11.60;;
47866;SDS011;33628;50.806;11.586;2022-12-18T01:53:47;28.92;;;11.95;;
47866;SDS011;33628;50.806;11.586;2022-12-18T01:56:16;30.52;;;11.32;;
47866;SDS011;33628;50.806;11.586;2022-12-18T01:58:50;23.73;;;10.20;;
47866;SDS011;33628;50.806;11.586;2022-12-18T02:01:20;27.92;;;12.15;;
47866;SDS011;33628;50.806;11.586;2022-12-18T02:03:49;34.05;;;10.15;;
47866;SDS011;33628;50.806;11.586;2022-12-18T02:06:19;24.90;;;12.38;;
47866;SDS011;33628;50.806;11.586;2022-12-18T02:08:52;25.67;;;9.30;;
47866;SDS011;33628;50.806;11.586;2022-12-18T02:11:32;28.58;;;9.68;;
47866;SDS011;33628;50.806;11.586;2022-12-18T02:14:09;20.67;;;9.32;;
47866;SDS011;33628;50.806;11.586;2022-12-18T02:16:42;22.20;;;10.33;;
47866;SDS011;33628;50.806;11.586;2022-12-18T02:19:15;34.22;;;11.18;;
47866;SDS011;33628;50.806;11.586;2022-12-18T02:21:57;36.65;;;14.15;;
47866;SDS011;33628;50.806;11.586;2022-12-18T02:24:29;22.60;;;8.50;;
47866;SDS011;33628;50.806;11.586;2022-12-18T02:27:00;29.92;;;11.90;;
47866;SDS011;33628;50.806;11.586;2022-12-18T02:29:31;16.85;;;8.95;;
47866;SDS011;33628;50.806;11.586;2022-12-18T02:32:01;18.92;;;9.90;;
47866;SDS011;33628;50.806;11.586;2022-12-18T02:34:31;24.80;;;8.73;;
47866;SDS011;33628;50.806;11.586;2022-12-18T02:37:00;18.75;;;8.13;;
47866;SDS011;33628;50.806;11.586;2022-12-18T02:39:30;10.57;;;6.72;;
47866;SDS011;33628;50.806;11.586;2022-12-18T02:42:04;17.17;;;8.55;;
47866;SDS011;33628;50.806;11.586;2022-12-18T02:44:34;19.23;;;7.88;;
47866;SDS011;33628;50.806;11.586;2022-12-18T02:47:03;19.75;;;9.75;;
47866;SDS011;33628;50.806;11.586;2022-12-18T02:49:31;23.10;;;10.48;;
47866;SDS011;33628;50.806;11.586;2022-12-18T02:52:05;18.13;;;9.10;;
47866;SDS011;33628;50.806;11.586;2022-12-18T02:57:27;15.88;;;8.10;;
47866;SDS011;33628;50.806;11.586;2022-12-18T03:00:00;25.45;;;11.57;;
47866;SDS011;33628;50.806;11.586;2022-12-18T03:02:33;26.90;;;12.85;;
47866;SDS011;33628;50.806;11.586;2022-12-18T03:05:05;24.25;;;10.77;;
47866;SDS011;33628;50.806;11.586;2022-12-18T03:07:38;27.90;;;11.55;;
47866;SDS011;33628;50.806;11.586;2022-12-18T03:10:11;26.08;;;11.40;;
47866;SDS011;33628;50.806;11.586;2022-12-18T03:12:42;30.15;;;12.52;;
47866;SDS011;33628;50.806;11.586;2022-12-18T03:15:13;13.65;;;8.30;;
47866;SDS011;33628;50.806;11.586;2022-12-18T03:17:45;25.48;;;12.20;;
47866;SDS011;33628;50.806;11.586;2022-12-18T03:20:14;26.30;;;11.07;;
47866;SDS011;33628;50.806;11.586;2022-12-18T03:22:44;19.92;;;11.07;;
47866;SDS011;33628;50.806;11.586;2022-12-18T03:25:13;14.98;;;9.55;;
47866;SDS011;33628;50.806;11.586;2022-12-18T03:27:43;31.50;;;11.20;;
47866;SDS011;33628;50.806;11.586;2022-12-18T03:30:15;37.72;;;12.05;;
47866;SDS011;33628;50.806;11.586;2022-12-18T03:32:46;20.77;;;11.25;;
47866;SDS011;33628;50.806;11.586;2022-12-18T03:35:16;28.58;;;14.15;;
47866;SDS011;33628;50.806;11.586;2022-12-18T03:37:46;20.30;;;9.48;;
47866;SDS011;33628;50.806;11.586;2022-12-18T03:40:13;22.48;;;10.23;;
47866;SDS011;33628;50.806;11.586;2022-12-18T03:42:45;24.33;;;10.32;;
47866;SDS011;33628;50.806;11.586;2022-12-18T03:45:17;21.75;;;10.50;;
47866;SDS011;33628;50.806;11.586;2022-12-18T03:47:48;28.77;;;11.80;;
47866;SDS011;33628;50.806;11.586;2022-12-18T03:50:27;17.45;;;8.25;;
47866;SDS011;33628;50.806;11.586;2022-12-18T03:52:57;16.63;;;10.07;;
47866;SDS011;33628;50.806;11.586;2022-12-18T03:55:27;22.63;;;10.48;;
47866;SDS011;33628;50.806;11.586;2022-12-18T03:58:01;21.80;;;10.05;;
47866;SDS011;33628;50.806;11.586;2022-12-18T04:00:39;29.23;;;10.73;;
47866;SDS011;33628;50.806;11.586;2022-12-18T04:03:10;19.60;;;10.25;;
47866;SDS011;33628;50.806;11.586;2022-12-18T04:05:44;13.10;;;6.43;;
47866;SDS011;33628;50.806;11.586;2022-12-18T04:08:13;33.78;;;11.82;;
47866;SDS011;33628;50.806;11.586;2022-12-18T04:10:44;33.42;;;11.02;;
47866;SDS011;33628;50.806;11.586;2022-12-18T04:13:13;22.15;;;10.20;;
47866;SDS011;33628;50.806;11.586;2022-12-18T04:15:48;13.88;;;7.80;;
47866;SDS011;33628;50.806;11.586;2022-12-18T04:18:16;20.75;;;11.00;;
47866;SDS011;33628;50.806;11.586;2022-12-18T04:20:43;29.98;;;12.57;;
47866;SDS011;33628;50.806;11.586;2022-12-18T04:23:11;35.28;;;11.45;;
47866;SDS011;33628;50.806;11.586;2022-12-18T04:25:38;27.23;;;12.52;;
47866;SDS011;33628;50.806;11.586;2022-12-18T04:28:08;30.33;;;11.38;;
47866;SDS011;33628;50.806;11.586;2022-12-18T04:30:38;22.50;;;10.30;;
47866;SDS011;33628;50.806;11.586;2022-12-18T04:33:08;20.55;;;10.45;;
47866;SDS011;33628;50.806;11.586;2022-12-18T04:35:35;30.15;;;10.73;;
47866;SDS011;33628;50.806;11.586;2022-12-18T04:38:02;22.88;;;8.02;;
47866;SDS011;33628;50.806;11.586;2022-12-18T04:40:28;22.73;;;9.00;;
47866;SDS011;33628;50.806;11.586;2022-12-18T04:42:55;20.08;;;10.48;;
47866;SDS011;33628;50.806;11.586;2022-12-18T04:45:22;28.55;;;10.73;;
47866;SDS011;33628;50.806;11.586;2022-12-18T04:47:50;19.70;;;8.32;;
47866;SDS011;33628;50.806;11.586;2022-12-18T04:50:16;26.70;;;9.20;;
47866;SDS011;33628;50.806;11.586;2022-12-18T04:52:45;14.60;;;7.30;;
47866;SDS011;33628;50.806;11.586;2022-12-18T04:55:12;16.70;;;8.48;;
47866;SDS011;33628;50.806;11.586;2022-12-18T04:57:39;23.60;;;8.90;;
47866;SDS011;33628;50.806;11.586;2022-12-18T05:00:06;22.05;;;10.23;;
47866;SDS011;33628;50.806;11.586;2022-12-18T05:02:33;14.43;;;7.22;;
47866;SDS011;33628;50.806;11.586;2022-12-18T05:05:02;24.35;;;9.85;;
47866;SDS011;33628;50.806;11.586;2022-12-18T05:07:29;13.50;;;7.65;;
47866;SDS011;33628;50.806;11.586;2022-12-18T05:09:55;16.27;;;7.78;;
47866;SDS011;33628;50.806;11.586;2022-12-18T05:12:23;15.48;;;7.50;;
47866;SDS011;33628;50.806;11.586;2022-12-18T05:14:50;16.52;;;7.68;;
47866;SDS011;33628;50.806;11.586;2022-12-18T05:17:16;20.98;;;7.75;;
47866;SDS011;33628;50.806;11.586;2022-12-18T05:19:43;27.50;;;10.13;;
47866;SDS011;33628;50.806;11.586;2022-12-18T05:22:11;20.42;;;10.73;;
47866;SDS011;33628;50.806;11.586;2022-12-18T05:24:37;20.88;;;9.20;;
47866;SDS011;33628;50.806;11.586;2022-12-18T05:27:04;28.35;;;11.25;;
47866;SDS011;33628;50.806;11.586;2022-12-18T05:29:31;10.82;;;4.90;;
47866;SDS011;33628;50.806;11.586;2022-12-18T05:31:57;15.77;;;7.63;;
47866;SDS011;33628;50.806;11.586;2022-12-18T05:34:24;8.68;;;5.88;;
47866;SDS011;33628;50.806;11.586;2022-12-18T05:36:51;18.73;;;7.68;;
47866;SDS011;33628;50.806;11.586;2022-12-18T05:39:19;16.73;;;7.90;;
47866;SDS011;33628;50.806;11.586;2022-12-18T05:41:46;26.70;;;10.30;;
47866;SDS011;33628;50.806;11.586;2022-12-18T05:44:12;18.83;;;9.15;;
47866;SDS011;33628;50.806;11.586;2022-12-18T05:46:39;17.77;;;9.30;;
47866;SDS011;33628;50.806;11.586;2022-12-18T05:49:06;25.20;;;10.15;;
47866;SDS011;33628;50.806;11.586;2022-12-18T05:51:36;23.13;;;9.90;;
47866;SDS011;33628;50.806;11.586;2022-12-18T05:54:03;26.90;;;10.43;;
47866;SDS011;33628;50.806;11.586;2022-12-18T05:56:33;17.70;;;9.20;;
47866;SDS011;33628;50.806;11.586;2022-12-18T05:59:00;19.65;;;8.82;;
47866;SDS011;33628;50.806;11.586;2022-12-18T06:01:26;18.23;;;7.47;;
47866;SDS011;33628;50.806;11.586;2022-12-18T06:03:53;13.88;;;7.30;;
47866;SDS011;33628;50.806;11.586;2022-12-18T06:06:21;14.15;;;8.30;;
47866;SDS011;33628;50.806;11.586;2022-12-18T06:08:49;18.48;;;9.35;;
47866;SDS011;33628;50.806;11.586;2022-12-18T06:11:18;15.18;;;6.75;;
47866;SDS011;33628;50.806;11.586;2022-12-18T06:13:49;17.90;;;8.93;;
47866;SDS011;33628;50.806;11.586;2022-12-18T06:16:15;13.50;;;6.18;;
47866;SDS011;33628;50.806;11.586;2022-12-18T06:18:42;17.58;;;6.82;;
47866;SDS011;33628;50.806;11.586;2022-12-18T06:21:08;17.00;;;8.43;;
47866;SDS011;33628;50.806;11.586;2022-12-18T06:23:35;24.67;;;10.10;;
47866;SDS011;33628;50.806;11.586;2022-12-18T06:26:05;17.77;;;8.20;;
47866;SDS011;33628;50.806;11.586;2022-12-18T06:28:32;11.93;;;6.40;;
47866;SDS011;33628;50.806;11.586;2022-12-18T06:31:00;10.48;;;5.60;;
47866;SDS011;33628;50.806;11.586;2022-12-18T06:33:28;17.88;;;8.75;;
47866;SDS011;33628;50.806;11.586;2022-12-18T06:35:54;8.13;;;4.15;;
47866;SDS011;33628;50.806;11.586;2022-12-18T06:38:26;11.35;;;5.78;;
47866;SDS011;33628;50.806;11.586;2022-12-18T06:40:52;17.30;;;7.55;;
47866;SDS011;33628;50.806;11.586;2022-12-18T06:43:19;16.83;;;8.23;;
47866;SDS011;33628;50.806;11.586;2022-12-18T06:45:46;20.75;;;8.50;;
47866;SDS011;33628;50.806;11.586;2022-12-18T06:48:19;19.70;;;8.30;;
47866;SDS011;33628;50.806;11.586;2022-12-18T06:50:46;13.40;;;8.70;;
47866;SDS011;33628;50.806;11.586;2022-12-18T06:53:13;8.25;;;5.07;;
47866;SDS011;33628;50.806;11.586;2022-12-18T06:55:40;21.08;;;5.70;;
47866;SDS011;33628;50.806;11.586;2022-12-18T06:58:07;13.23;;;5.97;;
47866;SDS011;33628;50.806;11.586;2022-12-18T07:00:34;5.78;;;3.92;;
47866;SDS011;33628;50.806;11.586;2022-12-18T07:03:01;13.90;;;8.75;;
47866;SDS011;33628;50.806;11.586;2022-12-18T07:05:29;22.65;;;8.00;;
47866;SDS011;33628;50.806;11.586;2022-12-18T07:07:55;23.23;;;12.55;;
47866;SDS011;33628;50.806;11.586;2022-12-18T07:10:22;15.32;;;7.90;;
47866;SDS011;33628;50.806;11.586;2022-12-18T07:12:48;10.98;;;6.85;;
47866;SDS011;33628;50.806;11.586;2022-12-18T07:15:15;18.02;;;7.97;;
47866;SDS011;33628;50.806;11.586;2022-12-18T07:17:42;24.05;;;12.85;;
47866;SDS011;33628;50.806;11.586;2022-12-18T07:20:09;40.95;;;15.50;;
47866;SDS011;33628;50.806;11.586;2022-12-18T07:22:37;35.15;;;15.05;;
47866;SDS011;33628;50.806;11.586;2022-12-18T07:25:05;30.63;;;13.50;;
47866;SDS011;33628;50.806;11.586;2022-12-18T07:27:32;29.20;;;12.20;;
47866;SDS011;33628;50.806;11.586;2022-12-18T07:29:59;13.77;;;8.18;;
47866;SDS011;33628;50.806;11.586;2022-12-18T07:32:26;23.42;;;11.23;;
47866;SDS011;33628;50.806;11.586;2022-12-18T07:34:52;34.22;;;13.90;;
47866;SDS011;33628;50.806;11.586;2022-12-18T07:37:19;33.72;;;13.23;;
47866;SDS011;33628;50.806;11.586;2022-12-18T07:39:47;32.88;;;14.43;;
47866;SDS011;33628;50.806;11.586;2022-12-18T07:42:14;20.98;;;8.95;;
47866;SDS011;33628;50.806;11.586;2022-12-18T07:44:59;20.67;;;11.27;;
47866;SDS011;33628;50.806;11.586;2022-12-18T07:47:26;16.98;;;9.32;;
47866;SDS011;33628;50.806;11.586;2022-12-18T07:49:52;21.42;;;9.63;;
47866;SDS011;33628;50.806;11.586;2022-12-18T07:52:19;25.88;;;10.27;;
47866;SDS011;33628;50.806;11.586;2022-12-18T07:54:47;13.30;;;8.55;;
47866;SDS011;33628;50.806;11.586;2022-12-18T07:57:15;17.85;;;8.38;;
47866;SDS011;33628;50.806;11.586;2022-12-18T07:59:42;13.50;;;8.95;;
47866;SDS011;33628;50.806;11.586;2022-12-18T08:02:09;17.27;;;8.02;;
47866;SDS011;33628;50.806;11.586;2022-12-18T08:04:38;11.05;;;8.05;;
47866;SDS011;33628;50.806;11.586;2022-12-18T08:07:05;16.25;;;9.30;;
47866;SDS011;33628;50.806;11.586;2022-12-18T08:09:32;21.85;;;10.77;;
47866;SDS011;33628;50.806;11.586;2022-12-18T08:12:00;7.18;;;5.82;;
47866;SDS011;33628;50.806;11.586;2022-12-18T08:14:27;15.45;;;9.23;;
47866;SDS011;33628;50.806;11.586;2022-12-18T08:16:53;11.10;;;7.13;;
47866;SDS011;33628;50.806;11.586;2022-12-18T08:19:20;13.63;;;8.38;;
47866;SDS011;33628;50.806;11.586;2022-12-18T08:21:46;19.83;;;8.85;;
47866;SDS011;33628;50.806;11.586;2022-12-18T08:24:13;20.98;;;9.35;;
47866;SDS011;33628;50.806;11.586;2022-12-18T08:26:40;7.50;;;5.72;;
47866;SDS011;33628;50.806;11.586;2022-12-18T08:29:09;16.23;;;8.23;;
47866;SDS011;33628;50.806;11.586;2022-12-18T08:31:36;17.10;;;9.32;;
47866;SDS011;33628;50.806;11.586;2022-12-18T08:34:03;28.63;;;10.45;;
47866;SDS011;33628;50.806;11.586;2022-12-18T08:36:30;27.75;;;11.20;;
47866;SDS011;33628;50.806;11.586;2022-12-18T08:38:56;29.20;;;11.18;;
47866;SDS011;33628;50.806;11.586;2022-12-18T08:41:23;20.75;;;8.60;;
47866;SDS011;33628;50.806;11.586;2022-12-18T08:43:50;16.83;;;8.95;;
47866;SDS011;33628;50.806;11.586;2022-12-18T08:46:37;23.50;;;10.18;;
47866;SDS011;33628;50.806;11.586;2022-12-18T08:49:05;17.45;;;9.88;;
47866;SDS011;33628;50.806;11.586;2022-12-18T08:51:32;27.88;;;12.35;;
47866;SDS011;33628;50.806;11.586;2022-12-18T08:53:59;21.30;;;11.80;;
47866;SDS011;33628;50.806;11.586;2022-12-18T08:56:26;21.38;;;9.48;;
47866;SDS011;33628;50.806;11.586;2022-12-18T08:58:53;21.55;;;9.90;;
47866;SDS011;33628;50.806;11.586;2022-12-18T09:01:20;18.70;;;10.00;;
47866;SDS011;33628;50.806;11.586;2022-12-18T09:03:48;27.77;;;10.82;;
47866;SDS011;33628;50.806;11.586;2022-12-18T09:06:16;22.50;;;9.75;;
47866;SDS011;33628;50.806;11.586;2022-12-18T09:08:43;20.58;;;9.82;;
47866;SDS011;33628;50.806;11.586;2022-12-18T09:11:12;27.65;;;11.00;;
47866;SDS011;33628;50.806;11.586;2022-12-18T09:13:39;24.38;;;9.23;;
47866;SDS011;33628;50.806;11.586;2022-12-18T09:16:06;22.00;;;9.32;;
47866;SDS011;33628;50.806;11.586;2022-12-18T09:18:33;22.77;;;10.05;;
47866;SDS011;33628;50.806;11.586;2022-12-18T09:21:06;17.85;;;8.07;;
47866;SDS011;33628;50.806;11.586;2022-12-18T09:23:34;25.05;;;12.77;;
47866;SDS011;33628;50.806;11.586;2022-12-18T09:26:01;26.00;;;11.90;;
47866;SDS011;33628;50.806;11.586;2022-12-18T09:28:27;31.85;;;14.75;;
47866;SDS011;33628;50.806;11.586;2022-12-18T09:30:54;19.48;;;9.80;;
47866;SDS011;33628;50.806;11.586;2022-12-18T09:33:21;21.92;;;10.73;;
47866;SDS011;33628;50.806;11.586;2022-12-18T09:35:47;19.63;;;10.02;;
47866;SDS011;33628;50.806;11.586;2022-12-18T09:38:16;18.50;;;8.07;;
47866;SDS011;33628;50.806;11.586;2022-12-18T09:40:44;18.67;;;9.65;;
47866;SDS011;33628;50.806;11.586;2022-12-18T09:43:13;25.85;;;11.10;;
47866;SDS011;33628;50.806;11.586;2022-12-18T09:45:44;25.83;;;11.38;;
47866;SDS011;33628;50.806;11.586;2022-12-18T09:50:42;18.35;;;8.15;;
47866;SDS011;33628;50.806;11.586;2022-12-18T09:53:10;25.02;;;12.10;;
47866;SDS011;33628;50.806;11.586;2022-12-18T09:55:41;32.05;;;14.43;;
47866;SDS011;33628;50.806;11.586;2022-12-18T09:58:12;29.90;;;13.05;;
47866;SDS011;33628;50.806;11.586;2022-12-18T10:00:41;24.00;;;12.75;;
47866;SDS011;33628;50.806;11.586;2022-12-18T10:03:09;42.45;;;19.23;;
47866;SDS011;33628;50.806;11.586;2022-12-18T10:05:44;36.72;;;15.35;;
47866;SDS011;33628;50.806;11.586;2022-12-18T10:08:19;27.35;;;13.57;;
47866;SDS011;33628;50.806;11.586;2022-12-18T10:10:50;22.20;;;10.65;;
47866;SDS011;33628;50.806;11.586;2022-12-18T10:13:22;19.85;;;10.73;;
47866;SDS011;33628;50.806;11.586;2022-12-18T10:15:54;23.35;;;10.82;;
47866;SDS011;33628;50.806;11.586;2022-12-18T10:18:34;23.13;;;10.50;;
47866;SDS011;33628;50.806;11.586;2022-12-18T10:23:37;25.85;;;11.73;;
47866;SDS011;33628;50.806;11.586;2022-12-18T10:26:10;25.23;;;13.05;;
47866;SDS011;33628;50.806;11.586;2022-12-18T10:28:38;27.73;;;12.75;;
47866;SDS011;33628;50.806;11.586;2022-12-18T10:31:06;23.98;;;11.65;;
47866;SDS011;33628;50.806;11.586;2022-12-18T10:33:33;25.40;;;13.23;;
47866;SDS011;33628;50.806;11.586;2022-12-18T10:36:00;24.20;;;12.13;;
47866;SDS011;33628;50.806;11.586;2022-12-18T10:38:28;30.05;;;13.00;;
47866;SDS011;33628;50.806;11.586;2022-12-18T10:40:56;27.77;;;13.75;;
47866;SDS011;33628;50.806;11.586;2022-12-18T10:43:26;25.30;;;13.32;;
47866;SDS011;33628;50.806;11.586;2022-12-18T10:45:58;32.67;;;16.20;;
47866;SDS011;33628;50.806;11.586;2022-12-18T10:48:31;25.00;;;12.52;;
47866;SDS011;33628;50.806;11.586;2022-12-18T10:51:00;26.27;;;13.65;;
47866;SDS011;33628;50.806;11.586;2022-12-18T10:53:27;21.55;;;12.52;;
47866;SDS011;33628;50.806;11.586;2022-12-18T10:55:55;23.83;;;11.98;;
47866;SDS011;33628;50.806;11.586;2022-12-18T10:58:28;26.77;;;13.50;;
47866;SDS011;33628;50.806;11.586;2022-12-18T11:01:02;26.48;;;13.00;;
47866;SDS011;33628;50.806;11.586;2022-12-18T11:03:31;29.88;;;13.30;;
47866;SDS011;33628;50.806;11.586;2022-12-18T11:06:02;24.08;;;13.57;;
47866;SDS011;33628;50.806;11.586;2022-12-18T11:08:30;23.75;;;11.98;;
47866;SDS011;33628;50.806;11.586;2022-12-18T11:10:56;23.17;;;12.95;;
47866;SDS011;33628;50.806;11.586;2022-12-18T11:13:24;23.58;;;13.38;;
47866;SDS011;33628;50.806;11.586;2022-12-18T11:15:53;31.23;;;15.05;;
47866;SDS011;33628;50.806;11.586;2022-12-18T11:18:22;28.50;;;14.77;;
47866;SDS011;33628;50.806;11.586;2022-12-18T11:20:52;31.33;;;16.73;;
47866;SDS011;33628;50.806;11.586;2022-12-18T11:23:20;35.42;;;18.35;;
47866;SDS011;33628;50.806;11.586;2022-12-18T11:25:52;39.15;;;20.48;;
47866;SDS011;33628;50.806;11.586;2022-12-18T11:28:28;41.33;;;24.05;;
47866;SDS011;33628;50.806;11.586;2022-12-18T11:31:22;32.03;;;16.23;;
47866;SDS011;33628;50.806;11.586;2022-12-18T11:33:52;43.35;;;23.38;;
47866;SDS011;33628;50.806;11.586;2022-12-18T11:36:22;54.50;;;25.25;;
47866;SDS011;33628;50.806;11.586;2022-12-18T11:38:50;32.00;;;15.63;;
47866;SDS011;33628;50.806;11.586;2022-12-18T11:41:20;40.53;;;20.20;;
47866;SDS011;33628;50.806;11.586;2022-12-18T11:44:09;38.22;;;16.70;;
47866;SDS011;33628;50.806;11.586;2022-12-18T11:46:43;37.45;;;18.70;;
47866;SDS011;33628;50.806;11.586;2022-12-18T11:49:14;28.40;;;16.20;;
47866;SDS011;33628;50.806;11.586;2022-12-18T11:51:46;39.00;;;20.67;;
47866;SDS011;33628;50.806;11.586;2022-12-18T11:54:15;36.22;;;19.33;;
47866;SDS011;33628;50.806;11.586;2022-12-18T11:56:43;32.33;;;19.20;;
47866;SDS011;33628;50.806;11.586;2022-12-18T11:59:14;28.60;;;17.08;;
47866;SDS011;33628;50.806;11.586;2022-12-18T12:01:48;37.85;;;19.02;;
47866;SDS011;33628;50.806;11.586;2022-12-18T12:04:30;31.75;;;18.75;;
47866;SDS011;33628;50.806;11.586;2022-12-18T12:07:20;35.25;;;20.73;;
47866;SDS011;33628;50.806;11.586;2022-12-18T12:09:52;27.40;;;16.35;;
47866;SDS011;33628;50.806;11.586;2022-12-18T12:12:27;31.77;;;16.92;;
47866;SDS011;33628;50.806;11.586;2022-12-18T12:15:17;31.23;;;16.02;;
47866;SDS011;33628;50.806;11.586;2022-12-18T12:17:50;29.15;;;16.52;;
47866;SDS011;33628;50.806;11.586;2022-12-18T12:20:20;33.65;;;18.02;;
47866;SDS011;33628;50.806;11.586;2022-12-18T12:22:50;34.10;;;18.88;;
47866;SDS011;33628;50.806;11.586;2022-12-18T12:25:23;37.58;;;20.40;;
47866;SDS011;33628;50.806;11.586;2022-12-18T12:27:58;40.38;;;20.80;;
47866;SDS011;33628;50.806;11.586;2022-12-18T12:30:34;38.70;;;19.83;;
47866;SDS011;33628;50.806;11.586;2022-12-18T12:33:12;40.70;;;21.20;;
47866;SDS011;33628;50.806;11.586;2022-12-18T12:35:46;34.60;;;18.80;;
47866;SDS011;33628;50.806;11.586;2022-12-18T12:38:15;35.83;;;17.75;;
47866;SDS011;33628;50.806;11.586;2022-12-18T12:40:46;35.55;;;18.00;;
47866;SDS011;33628;50.806;11.586;2022-12-18T12:43:22;39.30;;;18.50;;
47866;SDS011;33628;50.806;11.586;2022-12-18T12:45:53;32.50;;;16.73;;
47866;SDS011;33628;50.806;11.586;2022-12-18T12:48:27;33.80;;;16.65;;
47866;SDS011;33628;50.806;11.586;2022-12-18T12:51:09;36.03;;;18.23;;
47866;SDS011;33628;50.806;11.586;2022-12-18T12:53:38;39.72;;;19.35;;
47866;SDS011;33628;50.806;11.586;2022-12-18T12:56:07;39.40;;;18.88;;
47866;SDS011;33628;50.806;11.586;2022-12-18T12:58:37;37.05;;;18.25;;
47866;SDS011;33628;50.806;11.586;2022-12-18T13:01:10;36.05;;;15.52;;
47866;SDS011;33628;50.806;11.586;2022-12-18T13:03:45;33.22;;;16.50;;
47866;SDS011;33628;50.806;11.586;2022-12-18T13:06:16;39.13;;;17.73;;
47866;SDS011;33628;50.806;11.586;2022-12-18T13:08:53;45.17;;;17.23;;
47866;SDS011;33628;50.806;11.586;2022-12-18T13:11:37;40.75;;;18.52;;
47866;SDS011;33628;50.806;11.586;2022-12-18T13:14:24;37.72;;;17.85;;
47866;SDS011;33628;50.806;11.586;2022-12-18T13:20:05;39.90;;;17.88;;
47866;SDS011;33628;50.806;11.586;2022-12-18T13:22:34;39.03;;;17.35;;
47866;SDS011;33628;50.806;11.586;2022-12-18T13:25:02;32.03;;;17.55;;
47866;SDS011;33628;50.806;11.586;2022-12-18T13:30:44;43.47;;;20.23;;
47866;SDS011;33628;50.806;11.586;2022-12-18T13:36:12;39.53;;;17.80;;
47866;SDS011;33628;50.806;11.586;2022-12-18T13:38:42;45.08;;;20.00;;
47866;SDS011;33628;50.806;11.586;2022-12-18T13:41:22;47.78;;;20.30;;
47866;SDS011;33628;50.806;11.586;2022-12-18T13:43:51;53.22;;;22.42;;
47866;SDS011;33628;50.806;11.586;2022-12-18T13:46:22;52.78;;;25.40;;
47866;SDS011;33628;50.806;11.586;2022-12-18T13:48:57;65.20;;;24.65;;
47866;SDS011;33628;50.806;11.586;2022-12-18T13:53:56;54.35;;;19.20;;
47866;SDS011;33628;50.806;11.586;2022-12-18T13:56:24;51.45;;;20.98;;
47866;SDS011;33628;50.806;11.586;2022-12-18T14:01:53;53.83;;;21.45;;
47866;SDS011;33628;50.806;11.586;2022-12-18T14:04:25;51.78;;;21.45;;
47866;SDS011;33628;50.806;11.586;2022-12-18T14:06:55;49.15;;;20.30;;
47866;SDS011;33628;50.806;11.586;2022-12-18T14:09:25;47.13;;;21.02;;
47866;SDS011;33628;50.806;11.586;2022-12-18T14:11:53;42.42;;;19.40;;
47866;SDS011;33628;50.806;11.586;2022-12-18T14:17:08;50.70;;;20.88;;
47866;SDS011;33628;50.806;11.586;2022-12-18T14:19:35;52.95;;;20.92;;
47866;SDS011;33628;50.806;11.586;2022-12-18T14:22:03;51.72;;;20.77;;
47866;SDS011;33628;50.806;11.586;2022-12-18T14:24:30;48.13;;;22.55;;
47866;SDS011;33628;50.806;11.586;2022-12-18T14:26:57;48.78;;;22.80;;
47866;SDS011;33628;50.806;11.586;2022-12-18T14:29:43;42.33;;;19.38;;
47866;SDS011;33628;50.806;11.586;2022-12-18T14:32:11;54.47;;;22.95;;
47866;SDS011;33628;50.806;11.586;2022-12-18T14:34:39;47.45;;;20.35;;
47866;SDS011;33628;50.806;11.586;2022-12-18T14:37:10;43.42;;;18.30;;
47866;SDS011;33628;50.806;11.586;2022-12-18T14:39:37;45.33;;;20.08;;
47866;SDS011;33628;50.806;11.586;2022-12-18T14:42:04;59.25;;;25.02;;
47866;SDS011;33628;50.806;11.586;2022-12-18T14:44:31;41.03;;;17.63;;
47866;SDS011;33628;50.806;11.586;2022-12-18T14:46:58;38.85;;;14.85;;
47866;SDS011;33628;50.806;11.586;2022-12-18T14:49:26;33.40;;;14.25;;
47866;SDS011;33628;50.806;11.586;2022-12-18T14:51:57;42.70;;;18.15;;